sensor_id;sensor_type;location;lat;lon;timestamp;pressure;altitude;pressure_sealevel;temperature
37452;BMP280;23314;51.114;6.900;2024-02-14T00:01:25;101217.84;;;11.06
37452;BMP280;23314;51.114;6.900;2024-02-14T00:03:50;101220.50;;;11.06
37452;BMP280;23314;51.114;6.900;2024-02-14T00:06:15;101219.00;;;11.05
37452;BMP280;23314;51.114;6.900;2024-02-14T00:08:41;101213.31;;;11.03
37452;BMP280;23314;51.114;6.900;2024-02-14T00:11:06;101218.28;;;11.01
37452;BMP280;23314;51.114;6.900;2024-02-14T00:13:32;101211.78;;;10.99
37452;BMP280;23314;51.114;6.900;2024-02-14T00:16:00;101209.53;;;10.97
37452;BMP280;23314;51.114;6.900;2024-02-14T00:18:25;101207.59;;;10.98
37452;BMP280;23314;51.114;6.900;2024-02-14T00:20:51;101199.59;;;10.98
37452;BMP280;23314;51.114;6.900;2024-02-14T00:23:16;101204.19;;;10.97
37452;BMP280;23314;51.114;6.900;2024-02-14T00:25:41;101205.31;;;10.96
37452;BMP280;23314;51.114;6.900;2024-02-14T00:28:06;101204.56;;;10.96
37452;BMP280;23314;51.114;6.900;2024-02-14T00:30:32;101200.38;;;10.95
37452;BMP280;23314;51.114;6.900;2024-02-14T00:32:57;101201.16;;;10.95
37452;BMP280;23314;51.114;6.900;2024-02-14T00:35:22;101193.94;;;10.92
37452;BMP280;23314;51.114;6.900;2024-02-14T00:37:48;101193.16;;;10.88
37452;BMP280;23314;51.114;6.900;2024-02-14T00:40:13;101190.94;;;10.86
37452;BMP280;23314;51.114;6.900;2024-02-14T00:42:39;101188.25;;;10.83
37452;BMP280;23314;51.114;6.900;2024-02-14T00:45:06;101186.75;;;10.82
37452;BMP280;23314;51.114;6.900;2024-02-14T00:47:34;101188.66;;;10.81
37452;BMP280;23314;51.114;6.900;2024-02-14T00:50:00;101188.25;;;10.83
37452;BMP280;23314;51.114;6.900;2024-02-14T00:52:25;101180.63;;;10.85
37452;BMP280;23314;51.114;6.900;2024-02-14T00:54:50;101174.53;;;10.84
37452;BMP280;23314;51.114;6.900;2024-02-14T00:57:16;101159.28;;;10.85
37452;BMP280;23314;51.114;6.900;2024-02-14T00:59:43;101174.53;;;10.84
37452;BMP280;23314;51.114;6.900;2024-02-14T01:02:08;101169.19;;;10.84
37452;BMP280;23314;51.114;6.900;2024-02-14T01:04:33;101173.41;;;10.85
37452;BMP280;23314;51.114;6.900;2024-02-14T01:07:01;101173.41;;;10.85
37452;BMP280;23314;51.114;6.900;2024-02-14T01:09:27;101171.09;;;10.87
37452;BMP280;23314;51.114;6.900;2024-02-14T01:11:52;101165.00;;;10.87
37452;BMP280;23314;51.114;6.900;2024-02-14T01:14:18;101159.25;;;10.88
37452;BMP280;23314;51.114;6.900;2024-02-14T01:16:44;101154.66;;;10.89
37452;BMP280;23314;51.114;6.900;2024-02-14T01:19:10;101158.09;;;10.89
37452;BMP280;23314;51.114;6.900;2024-02-14T01:21:35;101152.38;;;10.91
37452;BMP280;23314;51.114;6.900;2024-02-14T01:24:01;101147.81;;;10.91
37452;BMP280;23314;51.114;6.900;2024-02-14T01:26:26;101146.66;;;10.92
37452;BMP280;23314;51.114;6.900;2024-02-14T01:28:51;101147.41;;;10.93
37452;BMP280;23314;51.114;6.900;2024-02-14T01:31:16;101141.31;;;10.92
37452;BMP280;23314;51.114;6.900;2024-02-14T01:33:42;101135.59;;;10.94
37452;BMP280;23314;51.114;6.900;2024-02-14T01:36:08;101133.66;;;10.95
37452;BMP280;23314;51.114;6.900;2024-02-14T01:38:34;101137.81;;;10.96
37452;BMP280;23314;51.114;6.900;2024-02-14T01:41:02;101140.50;;;10.96
37452;BMP280;23314;51.114;6.900;2024-02-14T01:43:28;101130.59;;;10.96
37452;BMP280;23314;51.114;6.900;2024-02-14T01:45:55;101140.50;;;10.99
37452;BMP280;23314;51.114;6.900;2024-02-14T01:48:21;101145.44;;;11.01
37452;BMP280;23314;51.114;6.900;2024-02-14T01:50:46;101151.91;;;11.03
37452;BMP280;23314;51.114;6.900;2024-02-14T01:53:12;101138.13;;;11.05
37452;BMP280;23314;51.114;6.900;2024-02-14T01:55:38;101134.69;;;11.08
37452;BMP280;23314;51.114;6.900;2024-02-14T01:58:03;101135.44;;;11.08
37452;BMP280;23314;51.114;6.900;2024-02-14T02:00:30;101131.63;;;11.09
37452;BMP280;23314;51.114;6.900;2024-02-14T02:02:56;101140.75;;;11.12
37452;BMP280;23314;51.114;6.900;2024-02-14T02:05:22;101129.69;;;11.14
37452;BMP280;23314;51.114;6.900;2024-02-14T02:07:48;101130.44;;;11.14
37452;BMP280;23314;51.114;6.900;2024-02-14T02:10:14;101134.63;;;11.15
37452;BMP280;23314;51.114;6.900;2024-02-14T02:12:40;101131.16;;;11.18
37452;BMP280;23314;51.114;6.900;2024-02-14T02:15:06;101128.50;;;11.18
37452;BMP280;23314;51.114;6.900;2024-02-14T02:17:32;101134.19;;;11.20
37452;BMP280;23314;51.114;6.900;2024-02-14T02:20:00;101124.28;;;11.21
37452;BMP280;23314;51.114;6.900;2024-02-14T02:22:25;101117.38;;;11.23
37452;BMP280;23314;51.114;6.900;2024-02-14T02:24:51;101120.41;;;11.25
37452;BMP280;23314;51.114;6.900;2024-02-14T02:27:16;101128.44;;;11.25
37452;BMP280;23314;51.114;6.900;2024-02-14T02:29:41;101126.53;;;11.26
37452;BMP280;23314;51.114;6.900;2024-02-14T02:32:07;101132.63;;;11.27
37452;BMP280;23314;51.114;6.900;2024-02-14T02:34:35;101130.72;;;11.27
37452;BMP280;23314;51.114;6.900;2024-02-14T02:37:01;101130.31;;;11.29
37452;BMP280;23314;51.114;6.900;2024-02-14T02:39:28;101130.31;;;11.29
37452;BMP280;23314;51.114;6.900;2024-02-14T02:41:53;101139.09;;;11.29
37452;BMP280;23314;51.114;6.900;2024-02-14T02:44:20;101137.91;;;11.30
37452;BMP280;23314;51.114;6.900;2024-02-14T02:46:46;101140.22;;;11.32
37452;BMP280;23314;51.114;6.900;2024-02-14T02:49:12;101137.53;;;11.32
37452;BMP280;23314;51.114;6.900;2024-02-14T02:51:39;101141.72;;;11.33
37452;BMP280;23314;51.114;6.900;2024-02-14T02:54:04;101146.28;;;11.32
37452;BMP280;23314;51.114;6.900;2024-02-14T02:56:29;101140.22;;;11.32
37452;BMP280;23314;51.114;6.900;2024-02-14T02:58:55;101147.81;;;11.33
37452;BMP280;23314;51.114;6.900;2024-02-14T03:01:21;101140.22;;;11.32
37452;BMP280;23314;51.114;6.900;2024-02-14T03:03:49;101142.47;;;11.33
37452;BMP280;23314;51.114;6.900;2024-02-14T03:06:14;101144.34;;;11.36
37452;BMP280;23314;51.114;6.900;2024-02-14T03:08:40;101144.34;;;11.36
37452;BMP280;23314;51.114;6.900;2024-02-14T03:11:05;101135.59;;;11.36
37452;BMP280;23314;51.114;6.900;2024-02-14T03:13:32;101133.66;;;11.36
37452;BMP280;23314;51.114;6.900;2024-02-14T03:15:57;101132.13;;;11.39
37452;BMP280;23314;51.114;6.900;2024-02-14T03:18:24;101127.16;;;11.41
37452;BMP280;23314;51.114;6.900;2024-02-14T03:20:49;101127.16;;;11.41
37452;BMP280;23314;51.114;6.900;2024-02-14T03:23:15;101128.31;;;11.40
37452;BMP280;23314;51.114;6.900;2024-02-14T03:25:41;101133.25;;;11.41
37452;BMP280;23314;51.114;6.900;2024-02-14T03:28:07;101127.91;;;11.41
37452;BMP280;23314;51.114;6.900;2024-02-14T03:30:36;101127.50;;;11.43
37452;BMP280;23314;51.114;6.900;2024-02-14T03:33:05;101128.66;;;11.42
37452;BMP280;23314;51.114;6.900;2024-02-14T03:35:30;101120.63;;;11.42
37452;BMP280;23314;51.114;6.900;2024-02-14T03:37:55;101122.56;;;11.41
37452;BMP280;23314;51.114;6.900;2024-02-14T03:40:21;101118.38;;;11.40
37452;BMP280;23314;51.114;6.900;2024-02-14T03:42:47;101113.44;;;11.39
37452;BMP280;23314;51.114;6.900;2024-02-14T03:45:13;101117.63;;;11.40
37452;BMP280;23314;51.114;6.900;2024-02-14T03:47:39;101110.75;;;11.39
37452;BMP280;23314;51.114;6.900;2024-02-14T03:50:05;101116.84;;;11.39
37452;BMP280;23314;51.114;6.900;2024-02-14T03:52:31;101113.44;;;11.39
37452;BMP280;23314;51.114;6.900;2024-02-14T03:54:59;101118.00;;;11.38
37452;BMP280;23314;51.114;6.900;2024-02-14T03:57:25;101119.53;;;11.39
37452;BMP280;23314;51.114;6.900;2024-02-14T03:59:54;101118.38;;;11.40
37452;BMP280;23314;51.114;6.900;2024-02-14T04:02:19;101110.34;;;11.40
37452;BMP280;23314;51.114;6.900;2024-02-14T04:04:45;101108.84;;;11.39
37452;BMP280;23314;51.114;6.900;2024-02-14T04:07:12;101111.88;;;11.41
37452;BMP280;23314;51.114;6.900;2024-02-14T04:09:37;101112.25;;;11.44
37452;BMP280;23314;51.114;6.900;2024-02-14T04:12:03;101119.81;;;11.45
37452;BMP280;23314;51.114;6.900;2024-02-14T04:14:28;101108.81;;;11.43
37452;BMP280;23314;51.114;6.900;2024-02-14T04:16:54;101104.22;;;11.44
37452;BMP280;23314;51.114;6.900;2024-02-14T04:19:19;101104.22;;;11.44
37452;BMP280;23314;51.114;6.900;2024-02-14T04:21:45;101101.91;;;11.46
37452;BMP280;23314;51.114;6.900;2024-02-14T04:24:11;101122.13;;;11.47
37452;BMP280;23314;51.114;6.900;2024-02-14T04:26:36;101116.38;;;11.48
37452;BMP280;23314;51.114;6.900;2024-02-14T04:29:02;101116.34;;;11.52
37452;BMP280;23314;51.114;6.900;2024-02-14T04:31:27;101125.88;;;11.53
37452;BMP280;23314;51.114;6.900;2024-02-14T04:33:56;101129.28;;;11.53
37452;BMP280;23314;51.114;6.900;2024-02-14T04:36:21;101120.94;;;11.51
37452;BMP280;23314;51.114;6.900;2024-02-14T04:38:48;101117.88;;;11.53
37452;BMP280;23314;51.114;6.900;2024-02-14T04:41:14;101125.88;;;11.53
37452;BMP280;23314;51.114;6.900;2024-02-14T04:43:40;101130.44;;;11.52
37452;BMP280;23314;51.114;6.900;2024-02-14T04:46:05;101127.78;;;11.52
37452;BMP280;23314;51.114;6.900;2024-02-14T04:48:32;101126.69;;;11.50
37452;BMP280;23314;51.114;6.900;2024-02-14T04:50:58;101121.69;;;11.52
37452;BMP280;23314;51.114;6.900;2024-02-14T04:53:23;101117.47;;;11.54
37452;BMP280;23314;51.114;6.900;2024-02-14T04:55:49;101116.72;;;11.54
37452;BMP280;23314;51.114;6.900;2024-02-14T04:58:14;101118.22;;;11.55
37452;BMP280;23314;51.114;6.900;2024-02-14T05:00:39;101123.91;;;11.57
37452;BMP280;23314;51.114;6.900;2024-02-14T05:03:05;101125.44;;;11.58
37452;BMP280;23314;51.114;6.900;2024-02-14T05:05:31;101132.72;;;11.57
37452;BMP280;23314;51.114;6.900;2024-02-14T05:07:59;101131.13;;;11.60
37452;BMP280;23314;51.114;6.900;2024-02-14T05:10:24;101140.28;;;11.63
37452;BMP280;23314;51.114;6.900;2024-02-14T05:12:49;101130.72;;;11.65
37452;BMP280;23314;51.114;6.900;2024-02-14T05:15:15;101136.41;;;11.67
37452;BMP280;23314;51.114;6.900;2024-02-14T05:17:44;101140.97;;;11.70
37452;BMP280;23314;51.114;6.900;2024-02-14T05:20:10;101135.22;;;11.72
37452;BMP280;23314;51.114;6.900;2024-02-14T05:22:36;101133.63;;;11.78
37452;BMP280;23314;51.114;6.900;2024-02-14T05:25:03;101144.66;;;11.80
37452;BMP280;23314;51.114;6.900;2024-02-14T05:27:29;101143.09;;;11.83
37452;BMP280;23314;51.114;6.900;2024-02-14T05:29:56;101146.50;;;11.87
37452;BMP280;23314;51.114;6.900;2024-02-14T05:32:21;101149.47;;;11.93
37452;BMP280;23314;51.114;6.900;2024-02-14T05:34:46;101145.63;;;11.94
37452;BMP280;23314;51.114;6.900;2024-02-14T05:37:12;101144.47;;;11.95
37452;BMP280;23314;51.114;6.900;2024-02-14T05:39:38;101144.84;;;11.97
37452;BMP280;23314;51.114;6.900;2024-02-14T05:42:04;101152.47;;;11.98
37452;BMP280;23314;51.114;6.900;2024-02-14T05:44:30;101154.38;;;11.98
37452;BMP280;23314;51.114;6.900;2024-02-14T05:46:56;101149.00;;;12.01
37452;BMP280;23314;51.114;6.900;2024-02-14T05:49:22;101153.94;;;12.03
37452;BMP280;23314;51.114;6.900;2024-02-14T05:51:47;101147.13;;;11.98
37452;BMP280;23314;51.114;6.900;2024-02-14T05:54:13;101142.97;;;11.94
37452;BMP280;23314;51.114;6.900;2024-02-14T05:56:38;101143.75;;;11.90
37452;BMP280;23314;51.114;6.900;2024-02-14T05:59:03;101141.91;;;11.87
37452;BMP280;23314;51.114;6.900;2024-02-14T06:01:29;101146.50;;;11.87
37452;BMP280;23314;51.114;6.900;2024-02-14T06:03:55;101138.09;;;11.85
37452;BMP280;23314;51.114;6.900;2024-02-14T06:06:20;101141.56;;;11.85
37452;BMP280;23314;51.114;6.900;2024-02-14T06:08:46;101138.09;;;11.85
37452;BMP280;23314;51.114;6.900;2024-02-14T06:11:12;101128.56;;;11.84
37452;BMP280;23314;51.114;6.900;2024-02-14T06:13:39;101135.84;;;11.83
37452;BMP280;23314;51.114;6.900;2024-02-14T06:16:05;101137.34;;;11.84
37452;BMP280;23314;51.114;6.900;2024-02-14T06:18:30;101137.34;;;11.84
37452;BMP280;23314;51.114;6.900;2024-02-14T06:20:55;101135.84;;;11.83
37452;BMP280;23314;51.114;6.900;2024-02-14T06:23:21;101137.34;;;11.84
37452;BMP280;23314;51.114;6.900;2024-02-14T06:25:46;101133.53;;;11.85
37452;BMP280;23314;51.114;6.900;2024-02-14T06:28:11;101135.06;;;11.86
37452;BMP280;23314;51.114;6.900;2024-02-14T06:30:37;101138.47;;;11.87
37452;BMP280;23314;51.114;6.900;2024-02-14T06:33:02;101135.78;;;11.87
37452;BMP280;23314;51.114;6.900;2024-02-14T06:35:28;101146.44;;;11.90
37452;BMP280;23314;51.114;6.900;2024-02-14T06:37:53;101147.94;;;11.92
37452;BMP280;23314;51.114;6.900;2024-02-14T06:40:19;101140.34;;;11.90
37452;BMP280;23314;51.114;6.900;2024-02-14T06:42:44;101138.03;;;11.92
37452;BMP280;23314;51.114;6.900;2024-02-14T06:45:09;101152.13;;;11.93
37452;BMP280;23314;51.114;6.900;2024-02-14T06:47:35;101151.41;;;11.92
37452;BMP280;23314;51.114;6.900;2024-02-14T06:50:00;101153.28;;;11.92
37452;BMP280;23314;51.114;6.900;2024-02-14T06:52:26;101154.06;;;11.92
37452;BMP280;23314;51.114;6.900;2024-02-14T06:54:51;101149.84;;;11.95
37452;BMP280;23314;51.114;6.900;2024-02-14T06:57:16;101150.59;;;11.95
37452;BMP280;23314;51.114;6.900;2024-02-14T06:59:43;101146.78;;;11.96
37452;BMP280;23314;51.114;6.900;2024-02-14T07:02:08;101151.31;;;11.99
37452;BMP280;23314;51.114;6.900;2024-02-14T07:04:33;101156.63;;;12.03
37452;BMP280;23314;51.114;6.900;2024-02-14T07:06:59;101158.47;;;12.06
37452;BMP280;23314;51.114;6.900;2024-02-14T07:09:25;101159.22;;;12.10
37452;BMP280;23314;51.114;6.900;2024-02-14T07:11:51;101162.22;;;12.12
37452;BMP280;23314;51.114;6.900;2024-02-14T07:14:19;101170.25;;;12.12
37452;BMP280;23314;51.114;6.900;2024-02-14T07:16:44;101170.59;;;12.14
37452;BMP280;23314;51.114;6.900;2024-02-14T07:19:09;101173.25;;;12.14
37452;BMP280;23314;51.114;6.900;2024-02-14T07:21:35;101172.88;;;12.16
37452;BMP280;23314;51.114;6.900;2024-02-14T07:24:03;101174.78;;;12.19
37452;BMP280;23314;51.114;6.900;2024-02-14T07:26:29;101175.09;;;12.21
37452;BMP280;23314;51.114;6.900;2024-02-14T07:28:54;101172.78;;;12.23
37452;BMP280;23314;51.114;6.900;2024-02-14T07:31:19;101181.19;;;12.21
37452;BMP280;23314;51.114;6.900;2024-02-14T07:33:45;101171.31;;;12.18
37452;BMP280;23314;51.114;6.900;2024-02-14T07:36:12;101174.41;;;12.17
37452;BMP280;23314;51.114;6.900;2024-02-14T07:38:37;101176.31;;;12.16
37452;BMP280;23314;51.114;6.900;2024-02-14T07:41:02;101176.31;;;12.16
37452;BMP280;23314;51.114;6.900;2024-02-14T07:43:28;101182.06;;;12.15
37452;BMP280;23314;51.114;6.900;2024-02-14T07:45:53;101183.22;;;12.14
37452;BMP280;23314;51.114;6.900;2024-02-14T07:48:18;101190.09;;;12.15
37452;BMP280;23314;51.114;6.900;2024-02-14T07:50:44;101189.69;;;12.16
37452;BMP280;23314;51.114;6.900;2024-02-14T07:53:09;101185.03;;;12.20
37452;BMP280;23314;51.114;6.900;2024-02-14T07:55:34;101188.06;;;12.22
37452;BMP280;23314;51.114;6.900;2024-02-14T07:57:59;101188.03;;;12.26
37452;BMP280;23314;51.114;6.900;2024-02-14T08:00:25;101182.59;;;12.33
37452;BMP280;23314;51.114;6.900;2024-02-14T08:02:51;101182.13;;;12.38
37452;BMP280;23314;51.114;6.900;2024-02-14T08:05:16;101175.56;;;12.43
37452;BMP280;23314;51.114;6.900;2024-02-14T08:07:42;101185.47;;;12.46
37452;BMP280;23314;51.114;6.900;2024-02-14T08:10:08;101195.34;;;12.49
37452;BMP280;23314;51.114;6.900;2024-02-14T08:12:34;101201.44;;;12.53
37452;BMP280;23314;51.114;6.900;2024-02-14T08:14:59;101200.22;;;12.58
37452;BMP280;23314;51.114;6.900;2024-02-14T08:17:29;101202.13;;;12.58
37452;BMP280;23314;51.114;6.900;2024-02-14T08:19:54;101198.31;;;12.59
37452;BMP280;23314;51.114;6.900;2024-02-14T08:22:20;101191.03;;;12.59
37452;BMP280;23314;51.114;6.900;2024-02-14T08:24:46;101195.59;;;12.62
37452;BMP280;23314;51.114;6.900;2024-02-14T08:27:15;101192.03;;;12.69
37452;BMP280;23314;51.114;6.900;2024-02-14T08:29:40;101196.84;;;12.78
37452;BMP280;23314;51.114;6.900;2024-02-14T08:32:06;101204.38;;;12.86
37452;BMP280;23314;51.114;6.900;2024-02-14T08:34:31;101208.09;;;12.96
37452;BMP280;23314;51.114;6.900;2024-02-14T08:36:56;101209.53;;;13.01
37452;BMP280;23314;51.114;6.900;2024-02-14T08:39:22;101204.88;;;13.05
37452;BMP280;23314;51.114;6.900;2024-02-14T08:41:47;101210.53;;;13.11
37452;BMP280;23314;51.114;6.900;2024-02-14T08:44:13;101211.97;;;13.15
37452;BMP280;23314;51.114;6.900;2024-02-14T08:46:39;101214.94;;;13.21
37452;BMP280;23314;51.114;6.900;2024-02-14T08:49:07;101219.00;;;13.29
37452;BMP280;23314;51.114;6.900;2024-02-14T08:51:37;101224.63;;;13.35
37452;BMP280;23314;51.114;6.900;2024-02-14T08:54:04;101223.41;;;13.40
37452;BMP280;23314;51.114;6.900;2024-02-14T08:56:31;101232.56;;;13.42
37452;BMP280;23314;51.114;6.900;2024-02-14T08:59:01;101225.69;;;13.41
37452;BMP280;23314;51.114;6.900;2024-02-14T09:01:30;101229.13;;;13.42
37452;BMP280;23314;51.114;6.900;2024-02-14T09:03:56;101225.97;;;13.47
37452;BMP280;23314;51.114;6.900;2024-02-14T09:06:23;101226.66;;;13.51
37452;BMP280;23314;51.114;6.900;2024-02-14T09:08:48;101223.94;;;13.54
37452;BMP280;23314;51.114;6.900;2024-02-14T09:11:15;101222.69;;;13.59
37452;BMP280;23314;51.114;6.900;2024-02-14T09:13:41;101222.69;;;13.59
37452;BMP280;23314;51.114;6.900;2024-02-14T09:16:08;101217.94;;;13.67
37452;BMP280;23314;51.114;6.900;2024-02-14T09:18:33;101216.56;;;13.79
37452;BMP280;23314;51.114;6.900;2024-02-14T09:20:58;101210.94;;;13.93
37452;BMP280;23314;51.114;6.900;2024-02-14T09:23:24;101221.69;;;14.10
37452;BMP280;23314;51.114;6.900;2024-02-14T09:25:49;101218.03;;;14.20
37452;BMP280;23314;51.114;6.900;2024-02-14T09:28:18;101226.72;;;14.28
37452;BMP280;23314;51.114;6.900;2024-02-14T09:30:44;101225.84;;;14.31
37452;BMP280;23314;51.114;6.900;2024-02-14T09:33:09;101229.56;;;14.37
37452;BMP280;23314;51.114;6.900;2024-02-14T09:35:34;101223.94;;;14.48
37452;BMP280;23314;51.114;6.900;2024-02-14T09:38:03;101228.50;;;14.51
37452;BMP280;23314;51.114;6.900;2024-02-14T09:40:29;101232.69;;;14.52
37452;BMP280;23314;51.114;6.900;2024-02-14T09:42:55;101238.88;;;14.49
37452;BMP280;23314;51.114;6.900;2024-02-14T09:45:26;101238.50;;;14.50
37452;BMP280;23314;51.114;6.900;2024-02-14T09:47:53;101238.06;;;14.52
37452;BMP280;23314;51.114;6.900;2024-02-14T09:50:19;101243.75;;;14.54
37452;BMP280;23314;51.114;6.900;2024-02-14T09:52:47;101244.09;;;14.56
37452;BMP280;23314;51.114;6.900;2024-02-14T09:55:14;101256.00;;;14.55
37452;BMP280;23314;51.114;6.900;2024-02-14T09:57:41;101258.28;;;14.57
37452;BMP280;23314;51.114;6.900;2024-02-14T10:00:07;101261.88;;;14.50
37452;BMP280;23314;51.114;6.900;2024-02-14T10:02:35;101267.75;;;14.45
37452;BMP280;23314;51.114;6.900;2024-02-14T10:05:00;101265.47;;;14.43
37452;BMP280;23314;51.114;6.900;2024-02-14T10:07:26;101272.00;;;14.42
37452;BMP280;23314;51.114;6.900;2024-02-14T10:09:51;101276.31;;;14.40
37452;BMP280;23314;51.114;6.900;2024-02-14T10:12:17;101278.09;;;14.46
37452;BMP280;23314;51.114;6.900;2024-02-14T10:14:43;101277.16;;;14.53
37452;BMP280;23314;51.114;6.900;2024-02-14T10:17:08;101276.69;;;14.58
37452;BMP280;23314;51.114;6.900;2024-02-14T10:19:35;101271.19;;;14.62
37452;BMP280;23314;51.114;6.900;2024-02-14T10:22:01;101288.47;;;14.61
37452;BMP280;23314;51.114;6.900;2024-02-14T10:24:30;101285.47;;;14.59
37452;BMP280;23314;51.114;6.900;2024-02-14T10:27:01;101287.06;;;14.56
37452;BMP280;23314;51.114;6.900;2024-02-14T10:29:27;101291.34;;;14.53
37452;BMP280;23314;51.114;6.900;2024-02-14T10:31:52;101289.41;;;14.54
37452;BMP280;23314;51.114;6.900;2024-02-14T10:34:18;101287.81;;;14.57
37452;BMP280;23314;51.114;6.900;2024-02-14T10:36:45;101293.09;;;14.60
37452;BMP280;23314;51.114;6.900;2024-02-14T10:39:11;101289.59;;;14.63
37452;BMP280;23314;51.114;6.900;2024-02-14T10:41:37;101292.44;;;14.73
37452;BMP280;23314;51.114;6.900;2024-02-14T10:44:03;101296.16;;;14.79
37452;BMP280;23314;51.114;6.900;2024-02-14T10:46:35;101291.03;;;14.84
37452;BMP280;23314;51.114;6.900;2024-02-14T10:49:05;101290.09;;;14.91
37452;BMP280;23314;51.114;6.900;2024-02-14T10:51:35;101299.03;;;14.88
37452;BMP280;23314;51.114;6.900;2024-02-14T10:54:03;101290.53;;;14.90
37452;BMP280;23314;51.114;6.900;2024-02-14T10:56:31;101293.66;;;14.88
37452;BMP280;23314;51.114;6.900;2024-02-14T10:58:57;101299.78;;;14.89
37452;BMP280;23314;51.114;6.900;2024-02-14T11:01:25;101294.91;;;14.83
37452;BMP280;23314;51.114;6.900;2024-02-14T11:03:52;101294.16;;;14.83
37452;BMP280;23314;51.114;6.900;2024-02-14T11:06:17;101306.91;;;14.79
37452;BMP280;23314;51.114;6.900;2024-02-14T11:08:55;101289.38;;;14.74
37452;BMP280;23314;51.114;6.900;2024-02-14T11:11:21;101290.25;;;14.67
37452;BMP280;23314;51.114;6.900;2024-02-14T11:13:52;101283.97;;;14.58
37452;BMP280;23314;51.114;6.900;2024-02-14T11:16:17;101287.31;;;14.45
37452;BMP280;23314;51.114;6.900;2024-02-14T11:18:43;101282.22;;;14.31
37452;BMP280;23314;51.114;6.900;2024-02-14T11:21:16;101280.41;;;14.28
37452;BMP280;23314;51.114;6.900;2024-02-14T11:23:41;101280.78;;;14.26
37452;BMP280;23314;51.114;6.900;2024-02-14T11:26:15;101281.34;;;14.38
37452;BMP280;23314;51.114;6.900;2024-02-14T11:28:40;101268.66;;;14.54
37452;BMP280;23314;51.114;6.900;2024-02-14T11:31:07;101273.00;;;14.85
37452;BMP280;23314;51.114;6.900;2024-02-14T11:33:32;101274.16;;;15.17
37452;BMP280;23314;51.114;6.900;2024-02-14T11:35:59;101282.44;;;15.39
37452;BMP280;23314;51.114;6.900;2024-02-14T11:38:29;101280.63;;;15.49
37452;BMP280;23314;51.114;6.900;2024-02-14T11:40:55;101287.44;;;15.53
37452;BMP280;23314;51.114;6.900;2024-02-14T11:43:23;101287.75;;;15.56
37452;BMP280;23314;51.114;6.900;2024-02-14T11:45:50;101276.47;;;15.61
37452;BMP280;23314;51.114;6.900;2024-02-14T11:48:17;101272.31;;;15.73
37452;BMP280;23314;51.114;6.900;2024-02-14T11:50:44;101277.88;;;15.82
37452;BMP280;23314;51.114;6.900;2024-02-14T11:53:11;101268.94;;;15.85
37452;BMP280;23314;51.114;6.900;2024-02-14T11:55:40;101275.41;;;15.88
37452;BMP280;23314;51.114;6.900;2024-02-14T11:58:10;101271.19;;;15.86
37452;BMP280;23314;51.114;6.900;2024-02-14T12:03:12;101269.31;;;15.70
37452;BMP280;23314;51.114;6.900;2024-02-14T12:05:38;101267.75;;;15.57
37452;BMP280;23314;51.114;6.900;2024-02-14T12:08:07;101269.22;;;15.45
37452;BMP280;23314;51.114;6.900;2024-02-14T12:10:32;101266.47;;;15.32
37452;BMP280;23314;51.114;6.900;2024-02-14T12:13:04;101263.66;;;15.23
37452;BMP280;23314;51.114;6.900;2024-02-14T12:15:29;101260.31;;;15.18
37452;BMP280;23314;51.114;6.900;2024-02-14T12:17:55;101256.09;;;15.17
37452;BMP280;23314;51.114;6.900;2024-02-14T12:20:24;101255.25;;;15.20
37452;BMP280;23314;51.114;6.900;2024-02-14T12:22:50;101252.56;;;15.20
37452;BMP280;23314;51.114;6.900;2024-02-14T12:25:15;101259.97;;;15.16
37452;BMP280;23314;51.114;6.900;2024-02-14T12:27:41;101255.00;;;15.15
37452;BMP280;23314;51.114;6.900;2024-02-14T12:30:07;101255.44;;;15.13
37452;BMP280;23314;51.114;6.900;2024-02-14T12:32:32;101253.56;;;15.10
37452;BMP280;23314;51.114;6.900;2024-02-14T12:34:59;101255.88;;;15.12
37452;BMP280;23314;51.114;6.900;2024-02-14T12:37:25;101249.06;;;15.07
37452;BMP280;23314;51.114;6.900;2024-02-14T12:39:50;101250.31;;;15.02
37452;BMP280;23314;51.114;6.900;2024-02-14T12:42:16;101245.91;;;14.96
37452;BMP280;23314;51.114;6.900;2024-02-14T12:44:43;101239.81;;;14.92
37452;BMP280;23314;51.114;6.900;2024-02-14T12:47:08;101244.84;;;14.90
37452;BMP280;23314;51.114;6.900;2024-02-14T12:49:34;101241.75;;;14.91
37452;BMP280;23314;51.114;6.900;2024-02-14T12:51:59;101239.41;;;14.93
37452;BMP280;23314;51.114;6.900;2024-02-14T12:54:25;101240.91;;;14.94
37452;BMP280;23314;51.114;6.900;2024-02-14T12:56:51;101238.66;;;14.93
37452;BMP280;23314;51.114;6.900;2024-02-14T12:59:17;101223.28;;;14.93
37452;BMP280;23314;51.114;6.900;2024-02-14T13:01:46;101229.28;;;15.01
37452;BMP280;23314;51.114;6.900;2024-02-14T13:04:13;101218.75;;;15.07
37452;BMP280;23314;51.114;6.900;2024-02-14T13:06:39;101229.41;;;15.10
37452;BMP280;23314;51.114;6.900;2024-02-14T13:09:05;101223.63;;;15.12
37452;BMP280;23314;51.114;6.900;2024-02-14T13:11:31;101219.00;;;15.12
37452;BMP280;23314;51.114;6.900;2024-02-14T13:13:57;101230.50;;;15.13
37452;BMP280;23314;51.114;6.900;2024-02-14T13:16:23;101216.63;;;15.14
37452;BMP280;23314;51.114;6.900;2024-02-14T13:18:48;101228.88;;;15.15
37452;BMP280;23314;51.114;6.900;2024-02-14T13:21:13;101217.38;;;15.15
37452;BMP280;23314;51.114;6.900;2024-02-14T13:23:39;101223.50;;;15.15
37452;BMP280;23314;51.114;6.900;2024-02-14T13:26:05;101222.69;;;15.18
37452;BMP280;23314;51.114;6.900;2024-02-14T13:28:31;101223.69;;;15.25
37452;BMP280;23314;51.114;6.900;2024-02-14T13:30:56;101221.63;;;15.29
37452;BMP280;23314;51.114;6.900;2024-02-14T13:33:22;101222.81;;;15.28
37452;BMP280;23314;51.114;6.900;2024-02-14T13:35:47;101213.22;;;15.27
37452;BMP280;23314;51.114;6.900;2024-02-14T13:38:13;101210.25;;;15.25
37452;BMP280;23314;51.114;6.900;2024-02-14T13:40:38;101216.84;;;15.20
37452;BMP280;23314;51.114;6.900;2024-02-14T13:43:04;101221.25;;;15.14
37452;BMP280;23314;51.114;6.900;2024-02-14T13:45:40;101221.00;;;15.08
37452;BMP280;23314;51.114;6.900;2024-02-14T13:48:07;101218.53;;;15.01
37452;BMP280;23314;51.114;6.900;2024-02-14T13:50:34;101198.59;;;14.98
37452;BMP280;23314;51.114;6.900;2024-02-14T13:52:59;101201.72;;;14.97